Nearby METAR Reports


KSYR - Syracuse, New York, USA
Distance from station: SE 5mi, 8km
Updated: Wed, 17-Jan-2018 4:54pm EST
Partly cloudy
Partly cloudy
 Wind from SW
Wind: SW 8 mph , 13 km/h
Temperature: 18°F , -8°C
Wind Chill: 8°F , -13°C
Dew Point: 9°F , -13°C
Humidity: 68%
Barometer: 30.27 inHg , 1025.1 hPa
Clouds: Partly cloudy
Visibility: 10 miles , 16 km
Cloud details: Few Clouds 3000 ft
Partly cloudy 4500 ft
2018/01/17 21:54 KSYR 172154Z 23007KT 10SM FEW030 SCT045 M08/M13 A3027 RMK AO2 SLP253 T10781128
KFZY - Fulton, New York, USA
Distance from station: NW 17mi, 27km
Updated: Wed, 17-Jan-2018 4:54pm EST
Overcast
Overcast
 Wind from WSW
Wind: WSW 12 mph , 19 km/h
Temperature: 19°F , -7°C
Wind Chill: 6°F , -14°C
Dew Point: 9°F , -13°C
Humidity: 63%
Barometer: 30.26 inHg , 1024.7 hPa
Clouds: Overcast
Visibility: 10 miles , 16 km
Cloud details: Overcast 3100 ft
2018/01/17 21:54 KFZY 172154Z AUTO 25010KT 10SM OVC031 M07/M13 A3026 RMK AO2 SLP256 T10671128
 
KRME - Rome/Griffiss Af, New York, USA
Distance from station: E 39mi, 62km
Updated: Wed, 17-Jan-2018 4:53pm EST
Overcast
Overcast
 Wind from calm
Wind: Calm
Temperature: 18°F , -8°C
Dew Point: 9°F , -13°C
Humidity: 68%
Barometer: 30.27 inHg , 1025.1 hPa
Clouds: Overcast
Visibility: 10 miles , 16 km
Cloud details: Overcast 2700 ft
2018/01/17 21:53 KRME 172153Z 00000KT 10SM OVC027 M08/M13 A3027 RMK AO2 SLP260 T10831128
KITH - Ithaca/Tompkins, New York, USA
Distance from station: SSW 51mi, 82km
Updated: Wed, 17-Jan-2018 4:56pm EST
Partly cloudy
Partly cloudy
 Wind from W
Wind: W 5 mph , 7 km/h
Temperature: 16°F , -9°C
Wind Chill: 8°F , -13°C
Dew Point: 7°F , -14°C
Humidity: 67%
Barometer: 30.23 inHg , 1023.7 hPa
Clouds: Partly cloudy
Visibility: 10 miles , 16 km
Cloud details: Partly cloudy 2700 ft
Partly cloudy 3500 ft
2018/01/17 21:56 KITH 172156Z 28004KT 10SM SCT027 SCT035 M09/M14 A3023 RMK AO2 SLP259 T10941139
 
KART - Watertown, New York, USA
Distance from station: N 56mi, 91km
Updated: Wed, 17-Jan-2018 4:56pm EST
Mist, Overcast
Mist, Overcast
 Wind from WSW
Wind: WSW 12 mph , 19 km/h, Gust: 22 mph , 35 km/h
Temperature: 21°F , -6°C
Wind Chill: 9°F , -13°C
Dew Point: 18°F , -8°C
Humidity: 86%
Barometer: 30.22 inHg , 1023.4 hPa
Summary: Mist
Clouds: Overcast
Visibility: 5 miles , 8 km
Cloud details: Few Clouds 2000 ft
Mostly cloudy 3900 ft
Overcast 4700 ft
2018/01/17 21:56 KART 172156Z AUTO 25010G19KT 5SM BR FEW020 BKN039 OVC047 M06/M08 A3022 RMK AO2 SNE53 SLP242 P0001 T10561078 TSNO
KPEO - Penn Yan, New York, USA
Distance from station: SW 58mi, 93km
Updated: Wed, 17-Jan-2018 4:53pm EST
Clear
Clear
 Wind from WSW
Wind: WSW 9 mph , 15 km/h
Temperature: 16°F , -9°C
Wind Chill: 5°F , -15°C
Dew Point: 3°F , -16°C
Humidity: 57%
Barometer: 30.25 inHg , 1024.4 hPa
Clouds: Clear
Visibility: 10 miles , 16 km
2018/01/17 21:53 KPEO 172153Z AUTO 25008KT 10SM CLR M09/M16 A3025 RMK AO2 SLP264 T10891156
 
KGTB - Fort Drum/Wheele, New York, USA
Distance from station: NNE 64mi, 102km
Updated: Wed, 17-Jan-2018 5:16pm EST
Light snow, Overcast
Light snow, Overcast
 Wind from SW
Wind: SW 10 mph , 17 km/h
Temperature: 19°F , -7°C
Wind Chill: 8°F , -13°C
Dew Point: 14°F , -10°C
Humidity: 79%
Barometer: 30.18 inHg , 1022 hPa
Summary: Light Snow
Clouds: Overcast
Visibility: 7 miles , 11 km
Cloud details: Mostly cloudy 1200 ft
Overcast 2100 ft
2018/01/17 22:16 KGTB 172216Z AUTO 22009KT 7SM -SN BKN012 OVC021 M07/M10 A3018 RMK AO2 CIG 011 RWY03 SLP233 $
CWQP - Point Petre (mar, Ontario, Canada
Distance from station: NW 67mi, 107km
Updated: Wed, 17-Jan-2018 4:00pm EST
NOT Current

 Wind from WSW
Wind: WSW 29 mph , 46 km/h, Gust: 37 mph , 59 km/h
Temperature: 25°F , -4°C
Wind Chill: 8°F , -13°C
Dew Point: 19°F , -7°C
Humidity: 80%
2018/01/17 21:00 CWQP 172100Z AUTO 25025G32KT M04/M07 RMK AO1 SOG 26 6017 PK WND 25034/2008 SLP245 T10441066 50009
 
KBGM - Binghamton, New York, USA
Distance from station: S 67mi, 107km
Updated: Wed, 17-Jan-2018 4:53pm EST
Clear
Clear
 Wind from NNW
Wind: NNW 3 mph , 6 km/h
Temperature: 14°F , -10°C
Dew Point: 7°F , -14°C
Humidity: 73%
Barometer: 30.18 inHg , 1022 hPa
Clouds: Clear
Visibility: 10 miles , 16 km
2018/01/17 21:53 KBGM 172153Z 33003KT 10SM CLR M10/M14 A3018 RMK AO2 SLP246 T11001139
CYGK - Kingston Arpt (m, Ontario, Canada
Distance from station: NNW 75mi, 121km
Updated: Wed, 17-Jan-2018 5:00pm EST
Nearby showers, Mostly cloudy
Nearby showers, Mostly cloudy
 Wind from SW
Wind: SW 9 mph , 15 km/h
Temperature: 18°F , -8°C
Wind Chill: 7°F , -14°C
Dew Point: 12°F , -11°C
Humidity: 79%
Barometer: 30.20 inHg , 1022.7 hPa
Summary: Nearby Showers
Clouds: Mostly cloudy
Visibility: 10 miles , 16 km
Cloud details: Partly cloudy 2500 ft
Partly cloudy 6000 ft
Mostly cloudy 25000 ft
2018/01/17 22:00 CYGK 172200Z 22008KT 10SM VCSH SCT025 SCT060 BKN250 M08/M11 A3020 RMK CU3SC1CI1 SLP234